SWA21 KLGA-KMCO
Flight info
| Callsign | SWA21 |
|---|---|
| Flight time | 2h 2m |
| Altitude | 36000 |
| Route | WHITE Q409 CRPLR Q85 LPERD SNFLD3 |
| Aircraft | B738/M-SDE2E3FGHIRWXY/LB1 |
Departure
| Time | 2026-05-06 02:08 |
|---|---|
| Airport | LaGuardia Airport (KLGA) |
Arrival
| Time | 2026-05-06 04:11 |
|---|---|
| Airport | Orlando International Airport (KMCO) |
| Time | Latitude | Longitude | Altitude | Speed | Heading |
|---|---|---|---|---|---|
| 2026-05-06 01:48 | 40.77545 | -73.87462 | 17 ft | 0 kts | 75° |
| 2026-05-06 01:59 | 40.77538 | -73.87488 | 9 ft | 4 kts | 62° |
| 2026-05-06 01:59 | 40.77528 | -73.87517 | 18 ft | 3 kts | 74° |
| 2026-05-06 02:00 | 40.77527 | -73.87543 | 18 ft | 4 kts | 141° |
| 2026-05-06 02:00 | 40.77547 | -73.87547 | 18 ft | 4 kts | 201° |
| 2026-05-06 02:00 | 40.77571 | -73.87531 | 21 ft | 4 kts | 214° |
| 2026-05-06 02:00 | 40.77592 | -73.87511 | 17 ft | 3 kts | 213° |
| 2026-05-06 02:01 | 40.77596 | -73.87508 | 17 ft | 1 kts | 212° |
| 2026-05-06 02:04 | 40.77571 | -73.87533 | 17 ft | 10 kts | 227° |
| 2026-05-06 02:05 | 40.77589 | -73.87604 | 18 ft | 11 kts | 312° |
| 2026-05-06 02:05 | 40.77657 | -73.87654 | 18 ft | 14 kts | 24° |
| 2026-05-06 02:05 | 40.77758 | -73.87568 | 19 ft | 21 kts | 34° |
| 2026-05-06 02:05 | 40.77861 | -73.87484 | 18 ft | 0 kts | 28° |
| 2026-05-06 02:06 | 40.77883 | -73.87468 | 17 ft | 7 kts | 29° |
| 2026-05-06 02:06 | 40.77936 | -73.87458 | 17 ft | 9 kts | 333° |
| 2026-05-06 02:06 | 40.77970 | -73.87522 | 18 ft | 9 kts | 295° |
| 2026-05-06 02:06 | 40.77999 | -73.87602 | 17 ft | 11 kts | 297° |
| 2026-05-06 02:07 | 40.78049 | -73.87702 | 17 ft | 15 kts | 303° |
| 2026-05-06 02:07 | 40.78109 | -73.87828 | 17 ft | 17 kts | 311° |
| 2026-05-06 02:07 | 40.78193 | -73.87857 | 17 ft | 11 kts | 16° |
| 2026-05-06 02:07 | 40.78203 | -73.87790 | 18 ft | 10 kts | 122° |
| 2026-05-06 02:08 | 40.78108 | -73.87588 | 18 ft | 55 kts | 122° |
| 2026-05-06 02:08 | 40.77759 | -73.86871 | 17 ft | 127 kts | 123° |
| 2026-05-06 02:08 | 40.77193 | -73.85680 | 124 ft | 174 kts | 127° |
| 2026-05-06 02:08 | 40.76458 | -73.84425 | 991 ft | 165 kts | 147° |
| 2026-05-06 02:09 | 40.75488 | -73.83740 | 1854 ft | 151 kts | 179° |
| 2026-05-06 02:09 | 40.74430 | -73.83523 | 2561 ft | 162 kts | 183° |
| 2026-05-06 02:09 | 40.73253 | -73.83389 | 3179 ft | 178 kts | 186° |
| 2026-05-06 02:09 | 40.71953 | -73.83279 | 3540 ft | 200 kts | 186° |
| 2026-05-06 02:10 | 40.70518 | -73.83210 | 3975 ft | 212 kts | 188° |
| 2026-05-06 02:10 | 40.69010 | -73.83383 | 4555 ft | 218 kts | 198° |
| 2026-05-06 02:10 | 40.67543 | -73.83980 | 5330 ft | 216 kts | 209° |
| 2026-05-06 02:10 | 40.66245 | -73.84885 | 6317 ft | 214 kts | 216° |
| 2026-05-06 02:11 | 40.64966 | -73.86024 | 6887 ft | 226 kts | 218° |
| 2026-05-06 02:11 | 40.63666 | -73.87264 | 7625 ft | 232 kts | 220° |
| 2026-05-06 02:11 | 40.62370 | -73.88558 | 8399 ft | 237 kts | 219° |
| 2026-05-06 02:11 | 40.60938 | -73.89823 | 8863 ft | 258 kts | 214° |
| 2026-05-06 02:12 | 40.59366 | -73.91080 | 9512 ft | 269 kts | 213° |
| 2026-05-06 02:12 | 40.57723 | -73.92388 | 10288 ft | 274 kts | 213° |
| 2026-05-06 02:12 | 40.56055 | -73.93730 | 10614 ft | 296 kts | 214° |
| 2026-05-06 02:12 | 40.54512 | -73.94978 | 10793 ft | 317 kts | 213° |
| 2026-05-06 02:13 | 40.52562 | -73.96560 | 10979 ft | 340 kts | 214° |
| 2026-05-06 02:13 | 40.50514 | -73.98279 | 11300 ft | 355 kts | 214° |
| 2026-05-06 02:13 | 40.48413 | -74.00068 | 11900 ft | 362 kts | 214° |
| 2026-05-06 02:13 | 40.46287 | -74.01873 | 12630 ft | 364 kts | 214° |
| 2026-05-06 02:14 | 40.44156 | -74.03673 | 13352 ft | 367 kts | 214° |
| 2026-05-06 02:14 | 40.41987 | -74.05488 | 14051 ft | 369 kts | 214° |
| 2026-05-06 02:14 | 40.39811 | -74.07242 | 14687 ft | 373 kts | 209° |
| 2026-05-06 02:14 | 40.37390 | -74.08530 | 15353 ft | 377 kts | 201° |
| 2026-05-06 02:15 | 40.34893 | -74.09647 | 15996 ft | 380 kts | 201° |
| 2026-05-06 02:15 | 40.32370 | -74.10760 | 16614 ft | 383 kts | 201° |
| 2026-05-06 02:15 | 40.29831 | -74.11888 | 17223 ft | 386 kts | 202° |
| 2026-05-06 02:15 | 40.28131 | -74.12649 | 17626 ft | 388 kts | 202° |
| 2026-05-06 02:16 | 40.25565 | -74.13807 | 18212 ft | 391 kts | 202° |
| 2026-05-06 02:16 | 40.22980 | -74.14980 | 18736 ft | 394 kts | 202° |
| 2026-05-06 02:16 | 40.20382 | -74.16161 | 19246 ft | 396 kts | 202° |
| 2026-05-06 02:16 | 40.17761 | -74.17355 | 19785 ft | 398 kts | 202° |
| 2026-05-06 02:17 | 40.15157 | -74.18540 | 20283 ft | 401 kts | 202° |
| 2026-05-06 02:17 | 40.12509 | -74.19744 | 20770 ft | 404 kts | 202° |
| 2026-05-06 02:17 | 40.09843 | -74.20955 | 21224 ft | 407 kts | 202° |
| 2026-05-06 02:17 | 40.07152 | -74.22177 | 21660 ft | 410 kts | 202° |
| 2026-05-06 02:18 | 40.04444 | -74.23404 | 22122 ft | 412 kts | 202° |
| 2026-05-06 02:18 | 40.01749 | -74.24714 | 22563 ft | 413 kts | 207° |
| 2026-05-06 02:18 | 39.99212 | -74.26447 | 22995 ft | 412 kts | 215° |
| 2026-05-06 02:18 | 39.96878 | -74.28635 | 23418 ft | 413 kts | 219° |
| 2026-05-06 02:19 | 39.94567 | -74.30892 | 23776 ft | 416 kts | 219° |
| 2026-05-06 02:19 | 39.92242 | -74.33148 | 24075 ft | 419 kts | 219° |
| 2026-05-06 02:19 | 39.89875 | -74.35423 | 24376 ft | 422 kts | 219° |
| 2026-05-06 02:19 | 39.87501 | -74.37689 | 24680 ft | 425 kts | 219° |
| 2026-05-06 02:20 | 39.82716 | -74.42239 | 25287 ft | 430 kts | 219° |
| 2026-05-06 02:20 | 39.80427 | -74.44756 | 25570 ft | 430 kts | 227° |
| 2026-05-06 02:20 | 39.78334 | -74.47549 | 25864 ft | 432 kts | 228° |
| 2026-05-06 02:21 | 39.76229 | -74.50384 | 26145 ft | 435 kts | 228° |
| 2026-05-06 02:21 | 39.74114 | -74.53227 | 26436 ft | 437 kts | 228° |
| 2026-05-06 02:21 | 39.71984 | -74.56075 | 26713 ft | 440 kts | 228° |
| 2026-05-06 02:21 | 39.69836 | -74.58935 | 26979 ft | 442 kts | 227° |
| 2026-05-06 02:22 | 39.67681 | -74.61792 | 27242 ft | 444 kts | 227° |
| 2026-05-06 02:22 | 39.65502 | -74.64674 | 27553 ft | 445 kts | 227° |
| 2026-05-06 02:22 | 39.63332 | -74.67539 | 27950 ft | 444 kts | 227° |
| 2026-05-06 02:22 | 39.61107 | -74.70473 | 28362 ft | 443 kts | 227° |
| 2026-05-06 02:23 | 39.58939 | -74.73329 | 28722 ft | 444 kts | 228° |
| 2026-05-06 02:23 | 39.56799 | -74.76148 | 29070 ft | 444 kts | 228° |
| 2026-05-06 02:23 | 39.54604 | -74.79035 | 29470 ft | 443 kts | 228° |
| 2026-05-06 02:23 | 39.52437 | -74.81883 | 29879 ft | 443 kts | 228° |
| 2026-05-06 02:24 | 39.50275 | -74.84724 | 30217 ft | 443 kts | 228° |
| 2026-05-06 02:24 | 39.48119 | -74.87552 | 30535 ft | 442 kts | 228° |
| 2026-05-06 02:24 | 39.45985 | -74.90350 | 30893 ft | 441 kts | 228° |
| 2026-05-06 02:24 | 39.43829 | -74.93174 | 31254 ft | 439 kts | 229° |
| 2026-05-06 02:25 | 39.41652 | -74.96022 | 31600 ft | 439 kts | 229° |
| 2026-05-06 02:25 | 39.39504 | -74.98830 | 31904 ft | 439 kts | 229° |
| 2026-05-06 02:25 | 39.37360 | -75.01631 | 32216 ft | 438 kts | 229° |
| 2026-05-06 02:25 | 39.35215 | -75.04432 | 32559 ft | 437 kts | 229° |
| 2026-05-06 02:26 | 39.33078 | -75.07219 | 32885 ft | 436 kts | 229° |
| 2026-05-06 02:26 | 39.30940 | -75.10004 | 33185 ft | 436 kts | 229° |
| 2026-05-06 02:26 | 39.28787 | -75.12761 | 33504 ft | 436 kts | 227° |
| 2026-05-06 02:26 | 39.26552 | -75.15423 | 33819 ft | 436 kts | 226° |
| 2026-05-06 02:27 | 39.24283 | -75.18032 | 34087 ft | 436 kts | 226° |
| 2026-05-06 02:27 | 39.22012 | -75.20630 | 34298 ft | 437 kts | 226° |
| 2026-05-06 02:27 | 39.19736 | -75.23246 | 34474 ft | 437 kts | 227° |
| 2026-05-06 02:27 | 39.17477 | -75.25862 | 34700 ft | 437 kts | 227° |
| 2026-05-06 02:28 | 39.15216 | -75.28492 | 34931 ft | 437 kts | 227° |
| 2026-05-06 02:28 | 39.12964 | -75.31117 | 35120 ft | 438 kts | 227° |
| 2026-05-06 02:28 | 39.10671 | -75.33792 | 35306 ft | 439 kts | 228° |
| 2026-05-06 02:28 | 39.08408 | -75.36426 | 35527 ft | 439 kts | 228° |
| 2026-05-06 02:29 | 39.06138 | -75.39064 | 35733 ft | 438 kts | 228° |
| 2026-05-06 02:29 | 39.03751 | -75.41536 | 35908 ft | 447 kts | 219° |
| 2026-05-06 02:29 | 39.00972 | -75.43433 | 35940 ft | 458 kts | 209° |
| 2026-05-06 02:29 | 38.97913 | -75.44721 | 35939 ft | 468 kts | 198° |
| 2026-05-06 02:30 | 38.94654 | -75.45317 | 35955 ft | 473 kts | 192° |
| 2026-05-06 02:30 | 38.88025 | -75.46103 | 35974 ft | 474 kts | 192° |
| 2026-05-06 02:31 | 38.81465 | -75.46940 | 35975 ft | 473 kts | 192° |
| 2026-05-06 02:31 | 38.74914 | -75.47859 | 35982 ft | 473 kts | 193° |
| 2026-05-06 02:32 | 38.68371 | -75.48767 | 35988 ft | 473 kts | 192° |
| 2026-05-06 02:32 | 38.61854 | -75.49644 | 35985 ft | 474 kts | 192° |
| 2026-05-06 02:33 | 38.55240 | -75.50532 | 35988 ft | 475 kts | 192° |
| 2026-05-06 02:33 | 38.53091 | -75.50821 | 35990 ft | 475 kts | 192° |
| 2026-05-06 02:34 | 38.42090 | -75.52302 | 36014 ft | 477 kts | 192° |
| 2026-05-06 02:34 | 38.35564 | -75.53571 | 36011 ft | 468 kts | 204° |
| 2026-05-06 02:35 | 38.29706 | -75.56893 | 36005 ft | 452 kts | 220° |
| 2026-05-06 02:35 | 38.24537 | -75.61444 | 36015 ft | 451 kts | 222° |
| 2026-05-06 02:36 | 38.19381 | -75.66021 | 36013 ft | 453 kts | 222° |
| 2026-05-06 02:36 | 38.14174 | -75.70580 | 36010 ft | 454 kts | 221° |
| 2026-05-06 02:37 | 38.08941 | -75.75122 | 36022 ft | 455 kts | 221° |
| 2026-05-06 02:37 | 38.03683 | -75.79672 | 36014 ft | 456 kts | 221° |
| 2026-05-06 02:38 | 37.98461 | -75.84185 | 36015 ft | 457 kts | 221° |
| 2026-05-06 02:38 | 37.94085 | -75.87961 | 36015 ft | 457 kts | 221° |
| 2026-05-06 02:39 | 37.88810 | -75.92507 | 36026 ft | 457 kts | 222° |
| 2026-05-06 02:39 | 37.83542 | -75.97038 | 36023 ft | 458 kts | 222° |
| 2026-05-06 02:40 | 37.78269 | -76.01566 | 36026 ft | 458 kts | 222° |
| 2026-05-06 02:40 | 37.72977 | -76.06103 | 36026 ft | 459 kts | 222° |
| 2026-05-06 02:41 | 37.67684 | -76.10633 | 36026 ft | 459 kts | 222° |
| 2026-05-06 02:41 | 37.62375 | -76.15169 | 36022 ft | 459 kts | 222° |
| 2026-05-06 02:42 | 37.56998 | -76.19586 | 36019 ft | 463 kts | 219° |
| 2026-05-06 02:42 | 37.51437 | -76.23749 | 36018 ft | 464 kts | 219° |
| 2026-05-06 02:43 | 37.45862 | -76.27886 | 36020 ft | 465 kts | 219° |
| 2026-05-06 02:43 | 37.40334 | -76.32032 | 36022 ft | 465 kts | 219° |
| 2026-05-06 02:44 | 37.34784 | -76.36219 | 36026 ft | 465 kts | 219° |
| 2026-05-06 02:44 | 37.29231 | -76.40408 | 36031 ft | 466 kts | 219° |
| 2026-05-06 02:45 | 37.23629 | -76.44625 | 36033 ft | 466 kts | 220° |
| 2026-05-06 02:45 | 37.18080 | -76.48795 | 36034 ft | 467 kts | 220° |
| 2026-05-06 02:46 | 37.12502 | -76.52976 | 36038 ft | 467 kts | 220° |
| 2026-05-06 02:46 | 37.06916 | -76.57158 | 36023 ft | 467 kts | 220° |
| 2026-05-06 02:47 | 37.01323 | -76.61337 | 36027 ft | 467 kts | 220° |
| 2026-05-06 02:47 | 36.95736 | -76.65504 | 36029 ft | 467 kts | 220° |
| 2026-05-06 02:48 | 36.90135 | -76.69675 | 36050 ft | 468 kts | 220° |
| 2026-05-06 02:48 | 36.84572 | -76.73811 | 36063 ft | 468 kts | 220° |
| 2026-05-06 02:49 | 36.78973 | -76.77967 | 36074 ft | 468 kts | 220° |
| 2026-05-06 02:49 | 36.73366 | -76.82121 | 36072 ft | 468 kts | 220° |
| 2026-05-06 02:50 | 36.67754 | -76.86271 | 36081 ft | 468 kts | 220° |
| 2026-05-06 02:50 | 36.62113 | -76.90436 | 36063 ft | 468 kts | 220° |
| 2026-05-06 02:51 | 36.56498 | -76.94574 | 36072 ft | 468 kts | 220° |
| 2026-05-06 02:51 | 36.50885 | -76.98704 | 36058 ft | 468 kts | 220° |
| 2026-05-06 02:52 | 36.45238 | -77.02851 | 36064 ft | 468 kts | 220° |
| 2026-05-06 02:52 | 36.39648 | -77.06951 | 36071 ft | 468 kts | 220° |
| 2026-05-06 02:53 | 36.34020 | -77.11071 | 36080 ft | 468 kts | 220° |
| 2026-05-06 02:53 | 36.28415 | -77.15167 | 36082 ft | 468 kts | 220° |
| 2026-05-06 02:54 | 36.22783 | -77.19277 | 36079 ft | 469 kts | 220° |
| 2026-05-06 02:54 | 36.17157 | -77.23373 | 36082 ft | 469 kts | 220° |
| 2026-05-06 02:55 | 36.11506 | -77.27486 | 36071 ft | 469 kts | 220° |
| 2026-05-06 02:55 | 36.05864 | -77.31582 | 36074 ft | 469 kts | 220° |
| 2026-05-06 02:56 | 36.00580 | -77.36151 | 36083 ft | 459 kts | 228° |
| 2026-05-06 02:56 | 35.95596 | -77.41080 | 36079 ft | 458 kts | 229° |
| 2026-05-06 02:57 | 35.90626 | -77.45995 | 36092 ft | 459 kts | 228° |
| 2026-05-06 02:57 | 35.85607 | -77.50880 | 36088 ft | 459 kts | 228° |
| 2026-05-06 02:58 | 35.80562 | -77.55746 | 36090 ft | 460 kts | 228° |
| 2026-05-06 02:58 | 35.75518 | -77.60596 | 36081 ft | 460 kts | 227° |
| 2026-05-06 02:59 | 35.70446 | -77.65468 | 36075 ft | 460 kts | 227° |
| 2026-05-06 02:59 | 35.65424 | -77.70285 | 36078 ft | 460 kts | 227° |
| 2026-05-06 03:00 | 35.60373 | -77.75123 | 36083 ft | 460 kts | 227° |
| 2026-05-06 03:00 | 35.55289 | -77.79985 | 36090 ft | 460 kts | 227° |
| 2026-05-06 03:01 | 35.50234 | -77.84810 | 36099 ft | 460 kts | 227° |
| 2026-05-06 03:01 | 35.45163 | -77.89644 | 36096 ft | 460 kts | 227° |
| 2026-05-06 03:02 | 35.40133 | -77.94430 | 36099 ft | 460 kts | 227° |
| 2026-05-06 03:02 | 35.35067 | -77.99243 | 36109 ft | 460 kts | 227° |
| 2026-05-06 03:03 | 35.30826 | -78.03265 | 36113 ft | 460 kts | 227° |
| 2026-05-06 03:03 | 35.24935 | -78.08845 | 36100 ft | 460 kts | 227° |
| 2026-05-06 03:04 | 35.20713 | -78.12837 | 36098 ft | 460 kts | 227° |
| 2026-05-06 03:04 | 35.15602 | -78.17662 | 36095 ft | 460 kts | 227° |
| 2026-05-06 03:05 | 35.10556 | -78.22419 | 36101 ft | 460 kts | 227° |
| 2026-05-06 03:05 | 35.05472 | -78.27204 | 36120 ft | 460 kts | 227° |
| 2026-05-06 03:06 | 35.00408 | -78.31964 | 36115 ft | 460 kts | 227° |
| 2026-05-06 03:06 | 34.95321 | -78.36730 | 36119 ft | 460 kts | 227° |
| 2026-05-06 03:07 | 34.90234 | -78.41482 | 36113 ft | 460 kts | 227° |
| 2026-05-06 03:07 | 34.85153 | -78.46223 | 36106 ft | 460 kts | 227° |
| 2026-05-06 03:08 | 34.80068 | -78.50961 | 36091 ft | 460 kts | 227° |
| 2026-05-06 03:08 | 34.74984 | -78.55693 | 36100 ft | 460 kts | 227° |
| 2026-05-06 03:09 | 34.69898 | -78.60418 | 36122 ft | 460 kts | 227° |
| 2026-05-06 03:09 | 34.64805 | -78.65143 | 36119 ft | 460 kts | 227° |
| 2026-05-06 03:10 | 34.59740 | -78.69834 | 36115 ft | 460 kts | 227° |
| 2026-05-06 03:10 | 34.54616 | -78.74574 | 36108 ft | 460 kts | 227° |
| 2026-05-06 03:11 | 34.49506 | -78.79286 | 36099 ft | 461 kts | 226° |
| 2026-05-06 03:11 | 34.44370 | -78.83957 | 36108 ft | 461 kts | 226° |
| 2026-05-06 03:12 | 34.39122 | -78.88488 | 36112 ft | 464 kts | 224° |
| 2026-05-06 03:12 | 34.33802 | -78.92922 | 36109 ft | 464 kts | 224° |
| 2026-05-06 03:13 | 34.28494 | -78.97390 | 36104 ft | 464 kts | 224° |
| 2026-05-06 03:13 | 34.23200 | -79.01852 | 36098 ft | 464 kts | 224° |
| 2026-05-06 03:14 | 34.17892 | -79.06299 | 36096 ft | 463 kts | 224° |
| 2026-05-06 03:14 | 34.12612 | -79.10716 | 36096 ft | 463 kts | 224° |
| 2026-05-06 03:15 | 34.07277 | -79.15178 | 36099 ft | 463 kts | 224° |
| 2026-05-06 03:15 | 34.02005 | -79.19578 | 36102 ft | 463 kts | 224° |
| 2026-05-06 03:16 | 33.96706 | -79.24002 | 36105 ft | 463 kts | 224° |
| 2026-05-06 03:16 | 33.91408 | -79.28422 | 36108 ft | 463 kts | 224° |
| 2026-05-06 03:17 | 33.86090 | -79.32852 | 36109 ft | 463 kts | 224° |
| 2026-05-06 03:17 | 33.80797 | -79.37255 | 36098 ft | 463 kts | 224° |
| 2026-05-06 03:18 | 33.75488 | -79.41664 | 36094 ft | 463 kts | 224° |
| 2026-05-06 03:18 | 33.70224 | -79.46029 | 36093 ft | 463 kts | 224° |
| 2026-05-06 03:19 | 33.64927 | -79.50414 | 36091 ft | 462 kts | 224° |
| 2026-05-06 03:19 | 33.59625 | -79.54798 | 36086 ft | 462 kts | 224° |
| 2026-05-06 03:20 | 33.51666 | -79.61366 | 36091 ft | 462 kts | 224° |
| 2026-05-06 03:20 | 33.46343 | -79.65750 | 36090 ft | 463 kts | 224° |
| 2026-05-06 03:21 | 33.41029 | -79.70122 | 36089 ft | 463 kts | 224° |
| 2026-05-06 03:21 | 33.35710 | -79.74490 | 36091 ft | 463 kts | 224° |
| 2026-05-06 03:22 | 33.30388 | -79.78850 | 36093 ft | 463 kts | 224° |
| 2026-05-06 03:22 | 33.25092 | -79.83180 | 36094 ft | 464 kts | 224° |
| 2026-05-06 03:23 | 33.19752 | -79.87543 | 36098 ft | 464 kts | 224° |
| 2026-05-06 03:23 | 33.14419 | -79.91894 | 36098 ft | 464 kts | 224° |
| 2026-05-06 03:24 | 33.09077 | -79.96245 | 36098 ft | 464 kts | 224° |
| 2026-05-06 03:24 | 33.03768 | -80.00565 | 36096 ft | 463 kts | 224° |
| 2026-05-06 03:25 | 32.98436 | -80.04895 | 36098 ft | 463 kts | 224° |
| 2026-05-06 03:25 | 32.93108 | -80.09217 | 36095 ft | 463 kts | 225° |
| 2026-05-06 03:26 | 32.87788 | -80.13526 | 36097 ft | 463 kts | 225° |
| 2026-05-06 03:26 | 32.82471 | -80.17826 | 36093 ft | 463 kts | 225° |
| 2026-05-06 03:27 | 32.77136 | -80.22134 | 36088 ft | 463 kts | 225° |
| 2026-05-06 03:27 | 32.71786 | -80.26448 | 36087 ft | 464 kts | 225° |
| 2026-05-06 03:28 | 32.66470 | -80.30730 | 36103 ft | 464 kts | 225° |
| 2026-05-06 03:28 | 32.61121 | -80.35032 | 36085 ft | 465 kts | 225° |
| 2026-05-06 03:29 | 32.55685 | -80.39250 | 36082 ft | 470 kts | 221° |
| 2026-05-06 03:29 | 32.49979 | -80.43118 | 36089 ft | 473 kts | 219° |
| 2026-05-06 03:30 | 32.44261 | -80.46887 | 36085 ft | 473 kts | 220° |
| 2026-05-06 03:30 | 32.38510 | -80.50718 | 36087 ft | 472 kts | 220° |
| 2026-05-06 03:31 | 32.32779 | -80.54568 | 36101 ft | 472 kts | 220° |
| 2026-05-06 03:31 | 32.27099 | -80.58388 | 36108 ft | 472 kts | 220° |
| 2026-05-06 03:32 | 32.21376 | -80.62231 | 36107 ft | 472 kts | 220° |
| 2026-05-06 03:32 | 32.15660 | -80.66062 | 36109 ft | 472 kts | 220° |
| 2026-05-06 03:33 | 32.09974 | -80.69866 | 36101 ft | 472 kts | 220° |
| 2026-05-06 03:33 | 32.04242 | -80.73696 | 36084 ft | 472 kts | 220° |
| 2026-05-06 03:34 | 31.98520 | -80.77513 | 36085 ft | 472 kts | 220° |
| 2026-05-06 03:34 | 31.92840 | -80.81298 | 36059 ft | 471 kts | 220° |
| 2026-05-06 03:35 | 31.87117 | -80.85105 | 36067 ft | 471 kts | 220° |
| 2026-05-06 03:35 | 31.81430 | -80.88883 | 36068 ft | 471 kts | 220° |
| 2026-05-06 03:36 | 31.76677 | -80.92036 | 36063 ft | 471 kts | 220° |
| 2026-05-06 03:36 | 31.70952 | -80.95831 | 36067 ft | 470 kts | 220° |
| 2026-05-06 03:37 | 31.65280 | -80.99584 | 36062 ft | 470 kts | 220° |
| 2026-05-06 03:37 | 31.59537 | -81.03380 | 36062 ft | 470 kts | 220° |
| 2026-05-06 03:38 | 31.53792 | -81.07020 | 36065 ft | 473 kts | 219° |
| 2026-05-06 03:38 | 31.47931 | -81.10558 | 36069 ft | 473 kts | 219° |
| 2026-05-06 03:39 | 31.42081 | -81.14121 | 36073 ft | 472 kts | 219° |
| 2026-05-06 03:39 | 31.36293 | -81.17651 | 36082 ft | 472 kts | 218° |
| 2026-05-06 03:40 | 31.30407 | -81.21137 | 36084 ft | 473 kts | 218° |
| 2026-05-06 03:40 | 31.24560 | -81.24590 | 36085 ft | 472 kts | 218° |
| 2026-05-06 03:41 | 31.18406 | -81.27606 | 36088 ft | 492 kts | 205° |
| 2026-05-06 03:41 | 31.14995 | -81.28360 | 36084 ft | 505 kts | 195° |
| 2026-05-06 03:41 | 31.11432 | -81.28517 | 36102 ft | 514 kts | 189° |
| 2026-05-06 03:42 | 31.04291 | -81.28384 | 36083 ft | 516 kts | 188° |
| 2026-05-06 03:42 | 30.97092 | -81.28236 | 36078 ft | 515 kts | 188° |
| 2026-05-06 03:43 | 30.89923 | -81.28185 | 36075 ft | 514 kts | 189° |
| 2026-05-06 03:43 | 30.86319 | -81.28179 | 35520 ft | 521 kts | 188° |
| 2026-05-06 03:43 | 30.82680 | -81.28174 | 34904 ft | 519 kts | 188° |
| 2026-05-06 03:44 | 30.79113 | -81.28165 | 34295 ft | 518 kts | 188° |
| 2026-05-06 03:44 | 30.75509 | -81.28152 | 33684 ft | 516 kts | 188° |
| 2026-05-06 03:44 | 30.71913 | -81.28138 | 33019 ft | 515 kts | 187° |
| 2026-05-06 03:44 | 30.68337 | -81.28126 | 32260 ft | 515 kts | 187° |
| 2026-05-06 03:45 | 30.64726 | -81.28116 | 31382 ft | 518 kts | 186° |
| 2026-05-06 03:45 | 30.61095 | -81.28106 | 30559 ft | 522 kts | 186° |
| 2026-05-06 03:45 | 30.57493 | -81.28019 | 30016 ft | 516 kts | 183° |
| 2026-05-06 03:45 | 30.53926 | -81.27784 | 29630 ft | 511 kts | 182° |
| 2026-05-06 03:46 | 30.50366 | -81.27482 | 29303 ft | 515 kts | 181° |
| 2026-05-06 03:46 | 30.46789 | -81.27163 | 29002 ft | 517 kts | 181° |
| 2026-05-06 03:46 | 30.43190 | -81.26850 | 28710 ft | 514 kts | 181° |
| 2026-05-06 03:46 | 30.39646 | -81.26555 | 28427 ft | 510 kts | 181° |
| 2026-05-06 03:47 | 30.36165 | -81.26279 | 28158 ft | 506 kts | 181° |
| 2026-05-06 03:47 | 30.32659 | -81.26012 | 27891 ft | 502 kts | 181° |
| 2026-05-06 03:47 | 30.29182 | -81.25753 | 27623 ft | 499 kts | 182° |
| 2026-05-06 03:47 | 30.25675 | -81.25494 | 27357 ft | 496 kts | 182° |
| 2026-05-06 03:48 | 30.22234 | -81.25240 | 27093 ft | 494 kts | 181° |
| 2026-05-06 03:48 | 30.18816 | -81.24988 | 26832 ft | 492 kts | 181° |
| 2026-05-06 03:48 | 30.15394 | -81.24734 | 26579 ft | 490 kts | 181° |
| 2026-05-06 03:48 | 30.11994 | -81.24481 | 26320 ft | 488 kts | 181° |
| 2026-05-06 03:49 | 30.08607 | -81.24229 | 26061 ft | 486 kts | 181° |
| 2026-05-06 03:49 | 30.05240 | -81.23978 | 25803 ft | 483 kts | 181° |
| 2026-05-06 03:49 | 30.01894 | -81.23729 | 25550 ft | 480 kts | 181° |
| 2026-05-06 03:49 | 29.98571 | -81.23482 | 25291 ft | 478 kts | 181° |
| 2026-05-06 03:50 | 29.95256 | -81.23235 | 25042 ft | 476 kts | 181° |
| 2026-05-06 03:50 | 29.91961 | -81.22991 | 24790 ft | 474 kts | 181° |
| 2026-05-06 03:50 | 29.88673 | -81.22748 | 24535 ft | 472 kts | 181° |
| 2026-05-06 03:50 | 29.85396 | -81.22505 | 24270 ft | 471 kts | 181° |
| 2026-05-06 03:51 | 29.82144 | -81.22264 | 24003 ft | 463 kts | 181° |
| 2026-05-06 03:51 | 29.78942 | -81.22026 | 23770 ft | 461 kts | 181° |
| 2026-05-06 03:51 | 29.75734 | -81.21790 | 23501 ft | 463 kts | 181° |
| 2026-05-06 03:51 | 29.72511 | -81.21553 | 23215 ft | 461 kts | 181° |
| 2026-05-06 03:52 | 29.69315 | -81.21312 | 22880 ft | 464 kts | 180° |
| 2026-05-06 03:52 | 29.66027 | -81.21045 | 22481 ft | 481 kts | 180° |
| 2026-05-06 03:52 | 29.62695 | -81.20760 | 22054 ft | 488 kts | 179° |
| 2026-05-06 03:52 | 29.59319 | -81.20461 | 21617 ft | 486 kts | 179° |
| 2026-05-06 03:53 | 29.55948 | -81.20161 | 21192 ft | 481 kts | 179° |
| 2026-05-06 03:53 | 29.52618 | -81.19868 | 20784 ft | 477 kts | 179° |
| 2026-05-06 03:53 | 29.49314 | -81.19582 | 20377 ft | 474 kts | 179° |
| 2026-05-06 03:53 | 29.46033 | -81.19301 | 19974 ft | 471 kts | 179° |
| 2026-05-06 03:54 | 29.42773 | -81.19023 | 19570 ft | 469 kts | 179° |
| 2026-05-06 03:54 | 29.39519 | -81.18746 | 19157 ft | 467 kts | 179° |
| 2026-05-06 03:54 | 29.36288 | -81.18471 | 18754 ft | 465 kts | 179° |
| 2026-05-06 03:54 | 29.33059 | -81.18196 | 18308 ft | 463 kts | 178° |
| 2026-05-06 03:55 | 29.29856 | -81.17923 | 17783 ft | 459 kts | 178° |
| 2026-05-06 03:55 | 29.26705 | -81.17648 | 17372 ft | 450 kts | 178° |
| 2026-05-06 03:55 | 29.23589 | -81.17372 | 16983 ft | 448 kts | 178° |
| 2026-05-06 03:55 | 29.20449 | -81.17074 | 16585 ft | 447 kts | 175° |
| 2026-05-06 03:56 | 29.17387 | -81.16405 | 16193 ft | 447 kts | 166° |
| 2026-05-06 03:56 | 29.14460 | -81.15192 | 15817 ft | 447 kts | 159° |
| 2026-05-06 03:56 | 29.11583 | -81.13854 | 15440 ft | 444 kts | 159° |
| 2026-05-06 03:56 | 29.08717 | -81.12562 | 15054 ft | 441 kts | 160° |
| 2026-05-06 03:57 | 29.05877 | -81.11328 | 14671 ft | 431 kts | 162° |
| 2026-05-06 03:57 | 29.03034 | -81.10233 | 14293 ft | 419 kts | 163° |
| 2026-05-06 03:57 | 29.00292 | -81.09226 | 13939 ft | 409 kts | 163° |
| 2026-05-06 03:57 | 28.97658 | -81.08260 | 13558 ft | 394 kts | 165° |
| 2026-05-06 03:58 | 28.95022 | -81.07717 | 13189 ft | 377 kts | 177° |
| 2026-05-06 03:58 | 28.92451 | -81.07487 | 12857 ft | 363 kts | 177° |
| 2026-05-06 03:58 | 28.89957 | -81.07272 | 12549 ft | 357 kts | 181° |
| 2026-05-06 03:58 | 28.87505 | -81.07476 | 12247 ft | 352 kts | 193° |
| 2026-05-06 03:59 | 28.85162 | -81.08227 | 11953 ft | 349 kts | 202° |
| 2026-05-06 03:59 | 28.82885 | -81.09193 | 11660 ft | 348 kts | 203° |
| 2026-05-06 03:59 | 28.80617 | -81.10176 | 11361 ft | 348 kts | 203° |
| 2026-05-06 03:59 | 28.78349 | -81.11149 | 11059 ft | 349 kts | 203° |
| 2026-05-06 04:00 | 28.76045 | -81.12121 | 10743 ft | 346 kts | 202° |
| 2026-05-06 04:00 | 28.73827 | -81.13045 | 10453 ft | 341 kts | 202° |
| 2026-05-06 04:00 | 28.71769 | -81.13898 | 10181 ft | 337 kts | 202° |
| 2026-05-06 04:00 | 28.69538 | -81.14756 | 9913 ft | 328 kts | 197° |
| 2026-05-06 04:01 | 28.67415 | -81.15336 | 9911 ft | 307 kts | 194° |
| 2026-05-06 04:01 | 28.65307 | -81.15848 | 9384 ft | 305 kts | 194° |
| 2026-05-06 04:01 | 28.63245 | -81.16348 | 9096 ft | 302 kts | 194° |
| 2026-05-06 04:01 | 28.61208 | -81.16858 | 8838 ft | 299 kts | 194° |
| 2026-05-06 04:02 | 28.59190 | -81.17375 | 8583 ft | 295 kts | 195° |
| 2026-05-06 04:02 | 28.57223 | -81.17885 | 8337 ft | 292 kts | 195° |
| 2026-05-06 04:02 | 28.55280 | -81.18389 | 8100 ft | 288 kts | 195° |
| 2026-05-06 04:02 | 28.53301 | -81.18749 | 7839 ft | 287 kts | 185° |
| 2026-05-06 04:03 | 28.51324 | -81.18768 | 7603 ft | 284 kts | 181° |
| 2026-05-06 04:03 | 28.49352 | -81.18726 | 7348 ft | 281 kts | 181° |
| 2026-05-06 04:03 | 28.47401 | -81.18705 | 7105 ft | 279 kts | 182° |
| 2026-05-06 04:03 | 28.45471 | -81.18707 | 6859 ft | 276 kts | 182° |
| 2026-05-06 04:04 | 28.43554 | -81.18717 | 6616 ft | 273 kts | 182° |
| 2026-05-06 04:04 | 28.41662 | -81.18731 | 6366 ft | 271 kts | 182° |
| 2026-05-06 04:04 | 28.39786 | -81.18745 | 6111 ft | 268 kts | 182° |
| 2026-05-06 04:04 | 28.38560 | -81.18754 | 6016 ft | 261 kts | 182° |
| 2026-05-06 04:05 | 28.36808 | -81.18765 | 5908 ft | 242 kts | 182° |
| 2026-05-06 04:05 | 28.35179 | -81.18777 | 5772 ft | 226 kts | 182° |
| 2026-05-06 04:05 | 28.33675 | -81.18788 | 5667 ft | 212 kts | 182° |
| 2026-05-06 04:05 | 28.32188 | -81.18800 | 5219 ft | 217 kts | 182° |
| 2026-05-06 04:06 | 28.30693 | -81.18842 | 4881 ft | 215 kts | 190° |
| 2026-05-06 04:06 | 28.29398 | -81.19560 | 4563 ft | 206 kts | 227° |
| 2026-05-06 04:06 | 28.28702 | -81.20906 | 4293 ft | 193 kts | 251° |
| 2026-05-06 04:06 | 28.28316 | -81.22330 | 3984 ft | 184 kts | 254° |
| 2026-05-06 04:07 | 28.27975 | -81.23692 | 3710 ft | 175 kts | 253° |
| 2026-05-06 04:07 | 28.27669 | -81.25000 | 3431 ft | 168 kts | 261° |
| 2026-05-06 04:07 | 28.27803 | -81.26293 | 3180 ft | 167 kts | 289° |
| 2026-05-06 04:07 | 28.28519 | -81.27299 | 2907 ft | 172 kts | 338° |
| 2026-05-06 04:08 | 28.29666 | -81.27657 | 2693 ft | 175 kts | 347° |
| 2026-05-06 04:08 | 28.30874 | -81.27920 | 2344 ft | 175 kts | 355° |
| 2026-05-06 04:08 | 28.32060 | -81.28081 | 2045 ft | 167 kts | 359° |
| 2026-05-06 04:08 | 28.33220 | -81.28142 | 1748 ft | 169 kts | 3° |
| 2026-05-06 04:09 | 28.34395 | -81.28157 | 1572 ft | 170 kts | 4° |
| 2026-05-06 04:09 | 28.35588 | -81.28153 | 1345 ft | 171 kts | 5° |
| 2026-05-06 04:09 | 28.36788 | -81.28135 | 1133 ft | 172 kts | 2° |
| 2026-05-06 04:09 | 28.37994 | -81.28204 | 890 ft | 173 kts | 360° |
| 2026-05-06 04:10 | 28.39187 | -81.28215 | 681 ft | 168 kts | 3° |
| 2026-05-06 04:10 | 28.40369 | -81.28170 | 428 ft | 169 kts | 2° |
| 2026-05-06 04:10 | 28.41536 | -81.28213 | 218 ft | 166 kts | 357° |
| 2026-05-06 04:10 | 28.42663 | -81.28244 | 105 ft | 153 kts | 360° |
| 2026-05-06 04:11 | 28.43554 | -81.28252 | 96 ft | 97 kts | 359° |
| 2026-05-06 04:11 | 28.43979 | -81.28252 | 101 ft | 35 kts | 358° |
| 2026-05-06 04:11 | 28.44207 | -81.28260 | 102 ft | 14 kts | 353° |
| 2026-05-06 04:11 | 28.44249 | -81.28341 | 100 ft | 13 kts | 265° |
| 2026-05-06 04:12 | 28.44178 | -81.28381 | 101 ft | 13 kts | 180° |
| 2026-05-06 04:12 | 28.44090 | -81.28379 | 102 ft | 12 kts | 181° |
| 2026-05-06 04:12 | 28.44004 | -81.28381 | 104 ft | 12 kts | 179° |
| 2026-05-06 04:12 | 28.43922 | -81.28379 | 103 ft | 12 kts | 185° |
| 2026-05-06 04:13 | 28.43877 | -81.28445 | 102 ft | 12 kts | 267° |
| 2026-05-06 04:13 | 28.43876 | -81.28537 | 103 ft | 12 kts | 269° |
| 2026-05-06 04:13 | 28.43874 | -81.28630 | 105 ft | 12 kts | 268° |
| 2026-05-06 04:13 | 28.43873 | -81.28708 | 106 ft | 11 kts | 270° |
| 2026-05-06 04:14 | 28.43873 | -81.28808 | 106 ft | 12 kts | 269° |
| 2026-05-06 04:14 | 28.43871 | -81.28906 | 106 ft | 13 kts | 269° |
| 2026-05-06 04:14 | 28.43869 | -81.29005 | 105 ft | 13 kts | 268° |
| 2026-05-06 04:14 | 28.43868 | -81.29112 | 98 ft | 18 kts | 270° |
| 2026-05-06 04:15 | 28.43852 | -81.29253 | 98 ft | 17 kts | 225° |
| 2026-05-06 04:15 | 28.43734 | -81.29263 | 98 ft | 17 kts | 180° |
| 2026-05-06 04:15 | 28.43620 | -81.29263 | 98 ft | 16 kts | 181° |
| 2026-05-06 04:15 | 28.43554 | -81.29337 | 100 ft | 15 kts | 271° |
| 2026-05-06 04:16 | 28.43554 | -81.29456 | 100 ft | 15 kts | 270° |
| 2026-05-06 04:16 | 28.43553 | -81.29575 | 100 ft | 16 kts | 269° |
| 2026-05-06 04:16 | 28.43543 | -81.29698 | 97 ft | 14 kts | 237° |
| 2026-05-06 04:16 | 28.43458 | -81.29711 | 99 ft | 12 kts | 179° |
| 2026-05-06 04:17 | 28.43372 | -81.29714 | 100 ft | 12 kts | 193° |
| 2026-05-06 04:17 | 28.43318 | -81.29783 | 99 ft | 13 kts | 223° |
| 2026-05-06 04:17 | 28.43234 | -81.29802 | 99 ft | 12 kts | 179° |
| 2026-05-06 04:17 | 28.43148 | -81.29801 | 99 ft | 12 kts | 180° |
| 2026-05-06 04:18 | 28.43065 | -81.29801 | 98 ft | 12 kts | 180° |
| 2026-05-06 04:18 | 28.42984 | -81.29800 | 99 ft | 11 kts | 180° |
| 2026-05-06 04:18 | 28.42916 | -81.29831 | 98 ft | 11 kts | 244° |
| 2026-05-06 04:18 | 28.42862 | -81.29883 | 102 ft | 11 kts | 184° |
| 2026-05-06 04:19 | 28.42800 | -81.29894 | 102 ft | 8 kts | 212° |
| 2026-05-06 04:19 | 28.42777 | -81.29952 | 102 ft | 8 kts | 265° |
| 2026-05-06 04:19 | 28.42796 | -81.30004 | 101 ft | 6 kts | 309° |
| 2026-05-06 04:19 | 28.42798 | -81.30006 | 101 ft | 1 kts | 308° |
| 2026-05-06 04:20 | 28.42799 | -81.30009 | 101 ft | 0 kts | 308° |